Thunder radar more information blitzortung!


Rain radar more information rain snow radar


Visit our other weather sites:

Template documentation
and downloads

And another site



There are no active watches, warnings or advisories

Nearby METAR Reports

   
EHVK - Volkel Rnlafb, Netherlands
Distance from station: SW 11 mi
Updated: Dec 10 2019 1:55 pm
Overcast  
Overcast  
   Wind: South 18.4 mph<br />Gust to 18.4 mph
Wind: South 18.4 mph
Gust to 18.4 mph
Temperature: 42.8°F
Wind Chill: 35.6°F
Dew Point: 33.8°F
Humidity: 71%
Barometer: 29.97 inHg
Clouds: Overcast
Visibility: More than 6 mi
Cloud details: Overcast 7300 ft
EHVK 101855Z AUTO 19016G26KT 150V230 9999 OVC073 06/01 Q1015 BLU
EDLV - Niederrhein, Germany
Distance from station: SE 15 mi
Updated: Dec 10 2019 1:50 pm
Clear  
Clear  
   Wind: South 15 mph
Wind: South 15 mph
Temperature: 41°F
Wind Chill: 33.8°F
Dew Point: 32°F
Humidity: 70%
Barometer: 30 inHg
Visibility: More than 6 mi
Cloud details: Clear
EDLV 101850Z 17013KT CAVOK 05/00 Q1016
EHDL - Deelen Rnlafb, Netherlands
Distance from station: N 22 mi
Updated: Dec 10 2019 1:55 pm
Overcast  
Overcast  
   Wind: South 18.4 mph
Wind: South 18.4 mph
Temperature: 41°F
Wind Chill: 32°F
Dew Point: 33.8°F
Humidity: 76%
Barometer: 29.94 inHg
Clouds: Overcast
Visibility: More than 6 mi
Cloud details: Overcast 6300 ft
EHDL 101855Z AUTO 18016KT 110V230 9999 OVC063 05/01 Q1014 BLU
EHEH - Eindhoven Rnlafb, Netherlands
Distance from station: SW 30 mi
Updated: Dec 10 2019 1:55 pm
Overcast  
Overcast  
   Wind: South 18.4 mph
Wind: South 18.4 mph
Temperature: 42.8°F
Wind Chill: 35.6°F
Dew Point: 33.8°F
Humidity: 71%
Barometer: 29.97 inHg
Clouds: Overcast
Visibility: More than 6 mi
Cloud details: Mostly Cloudy 7200 ft,
Mostly Cloudy 8500 ft,
Overcast 9200 ft
EHEH 101855Z AUTO 18016KT 140V210 9999 BKN072 BKN085 OVC092 06/01 Q1015 BLU 19015G25KT CAVOK
EHGR - Gilze-Rijen Rnla, Netherlands
Distance from station: WSW 43 mi
Updated: Dec 10 2019 1:55 pm
Overcast  
Overcast  
   Wind: South 23 mph
Wind: South 23 mph
Temperature: 42.8°F
Wind Chill: 33.8°F
Dew Point: 33.8°F
Humidity: 71%
Barometer: 29.91 inHg
Clouds: Overcast
Visibility: More than 6 mi
Cloud details: Overcast 5600 ft
EHGR 101855Z AUTO 18020KT 120V240 9999 OVC056 06/01 Q1013 BLU 18016G26KT 9999 FEW045 BKN075 TEMPO 20020G32KT
EBBL - Kleine-Brogel(Ba, Belgium
Distance from station: SSW 44 mi
Updated: Dec 10 2019 1:55 pm
Mostly Cloudy  
Mostly Cloudy  
   Wind: South 13.8 mph
Wind: South 13.8 mph
Temperature: 41°F
Wind Chill: 33.8°F
Dew Point: 32°F
Humidity: 70%
Barometer: 30 inHg
Clouds: Mostly Cloudy
Visibility: More than 6 mi
Cloud details: Mostly Cloudy 11000 ft
EBBL 101855Z 19012KT 9999 BKN110 05/00 Q1016 BLU BLU

Script developed by  Saratoga-weather.org Adapted for the template by  Weerstation Leuven

You find our weather info also at:

Weather Underground

AWEKAS

Citizen Weather Observer Program (CWOP)

HAMweather, WeatherForYou, PWS Weather

Equipment we use:

Weather-station
Davis VP2

Weather-program
Weather Display

Weather-server
HP ProDesk 600 G1

Provider
1&1 IONOS

Davis VP2

Weather Display

HP ProDesk 600 G1

1&1 IONOS